Flight Track Log - Related Links

Times and Time Zones

All times are in EDT time to prevent confusion due to time zone crossing. See the MPE445 flight status page for this flight to view local times or setup timezone preferences in your user account.

Time Position Orientation Groundspeed Altitude Reporting Facility
EDT Latitude Longitude Course Direction KTS MPH feet Rate Location/Type
Wed 08:15:59 PM 62.4500 -114.4833 171° South 110 127 700  Level Edmonton Center
Wed 08:16:59 PM 62.4000 -114.4667 171° South 180 207 2,100 1,850 Climbing Edmonton Center
Wed 08:17:59 PM 62.3333 -114.4833 187° South 230 265 4,400 2,200 Climbing Edmonton Center
Wed 08:18:59 PM 62.2667 -114.4667 173° South 240 276 6,500 2,100 Climbing Edmonton Center
Wed 08:19:59 PM 62.2000 -114.4833 187° South 280 322 8,600 2,300 Climbing Edmonton Center
Wed 08:20:59 PM 62.1167 -114.4500 169° South 270 311 11,100 2,000 Climbing Edmonton Center
Wed 08:21:59 PM 62.0500 -114.4667 187° South 290 334 12,600 1,350 Climbing Edmonton Center
Wed 08:22:59 PM 61.9500 -114.4667 180° South 330 380 13,800 1,550 Climbing Edmonton Center
Wed 08:23:59 PM 61.8500 -114.4333 171° South 360 414 15,700 2,250 Climbing Edmonton Center
Wed 08:24:59 PM 61.7333 -114.4500 184° South 370 426 18,300 2,150 Climbing Edmonton Center
Wed 08:25:59 PM 61.6333 -114.4500 180° South 370 426 20,000 1,600 Climbing Edmonton Center
Wed 08:26:59 PM 61.5333 -114.4500 180° South 380 437 21,500 1,550 Climbing Edmonton Center
Wed 08:27:59 PM 61.4167 -114.4167 172° South 380 437 23,100 1,600 Climbing Edmonton Center
Wed 08:28:59 PM 61.3167 -114.4167 180° South 390 449 24,700 1,650 Climbing Edmonton Center
Wed 08:29:59 PM 61.2000 -114.4167 180° South 380 437 26,400 1,550 Climbing Edmonton Center
Wed 08:30:59 PM 61.0833 -114.4333 184° South 380 437 27,800 1,250 Climbing Edmonton Center
Wed 08:31:59 PM 60.9833 -114.4000 171° South 380 437 28,900 1,000 Climbing Edmonton Center
Wed 08:32:59 PM 60.8667 -114.4000 180° South 380 437 29,800 900 Climbing Edmonton Center
Wed 08:33:59 PM 60.7667 -114.4000 180° South 390 449 30,700 600 Climbing Edmonton Center
Wed 08:34:59 PM 60.6667 -114.4000 180° South 390 449 31,000 150 Climbing Edmonton Center
Wed 08:35:59 PM 60.5500 -114.4000 180° South 390 449 31,000  Level Edmonton Center
Wed 08:36:59 PM 60.4333 -114.4167 184° South 390 449 31,000  Level Edmonton Center
Wed 08:37:59 PM 60.3167 -114.3833 172° South 390 449 31,000  Level Edmonton Center
Wed 08:38:59 PM 60.2167 -114.3833 180° South 380 437 31,000  Level Edmonton Center
Wed 08:39:59 PM 60.1167 -114.3833 180° South 380 437 31,000  Level Edmonton Center
Wed 08:40:59 PM 60.0000 -114.3833 180° South 380 437 31,000  Level Edmonton Center
Wed 08:41:59 PM 59.9000 -114.3500 171° South 380 437 31,000  Level Edmonton Center
Wed 08:42:59 PM 59.8000 -114.3667 179° South 380 437 31,000  Level Edmonton Center
Wed 08:43:00 PM 59.7936 -114.3447 179° South  Level FlightAware Approximate
Wed 08:43:59 PM 59.6667 -114.3667 180° South 380 437 31,000  Level Edmonton Center
Wed 08:44:59 PM 59.5667 -114.3667 180° South 380 437 31,000  Level Edmonton Center
Wed 08:45:59 PM 59.4667 -114.3333 170° South 390 449 31,000  Level Edmonton Center
Wed 08:46:59 PM 59.3500 -114.3333 180° South 390 449 31,000  Level Edmonton Center
Wed 08:47:59 PM 59.2500 -114.3500 185° South 390 449 31,000  Level Edmonton Center
Wed 08:48:59 PM 59.1333 -114.3500 180° South 390 449 31,000  Level Edmonton Center
Wed 08:49:59 PM 59.0333 -114.3167 170° South 390 449 31,000  Level Edmonton Center
Wed 08:50:59 PM 58.9167 -114.3167 180° South 390 449 31,000  Level Edmonton Center
Wed 08:51:59 PM 58.8000 -114.3167 180° South 390 449 31,000  Level Edmonton Center
Wed 08:52:59 PM 58.7000 -114.3333 185° South 390 449 31,000  Level Edmonton Center
Wed 08:53:59 PM 58.5833 -114.3333 180° South 390 449 31,000  Level Edmonton Center
Wed 08:54:59 PM 58.4667 -114.3000 172° South 390 449 31,000  Level Edmonton Center
Wed 08:55:59 PM 58.3667 -114.3000 180° South 390 449 31,000  Level Edmonton Center
Wed 08:56:59 PM 58.2500 -114.3000 180° South 400 460 31,000  Level Edmonton Center
Wed 08:57:59 PM 58.1333 -114.3000 180° South 400 460 31,000  Level Edmonton Center
Wed 08:58:59 PM 58.0167 -114.3000 180° South 400 460 31,000  Level Edmonton Center
Wed 08:59:59 PM 57.9167 -114.2833 175° South 400 460 31,000  Level Edmonton Center
Wed 09:00:59 PM 57.8000 -114.2833 180° South 400 460 31,000  Level Edmonton Center
Wed 09:01:59 PM 57.7000 -114.2833 180° South 400 460 31,000  Level Edmonton Center
Wed 09:02:59 PM 57.5833 -114.2833 180° South 390 449 31,000  Level Edmonton Center
Wed 09:03:59 PM 57.4833 -114.2667 175° South 390 449 31,000  Level Edmonton Center
Wed 09:04:59 PM 57.3500 -114.2667 180° South 390 449 31,000  Level Edmonton Center
Wed 09:05:59 PM 57.2500 -114.2667 180° South 390 449 31,000  Level Edmonton Center
Wed 09:06:59 PM 57.1333 -114.2667 180° South 390 449 31,000  Level Edmonton Center
Wed 09:07:59 PM 57.0333 -114.2667 180° South 390 449 31,000  Level Edmonton Center
Wed 09:08:59 PM 56.9167 -114.2333 171° South 390 449 31,000  Level Edmonton Center
Wed 09:09:59 PM 56.8167 -114.2500 185° South 390 449 31,000  Level Edmonton Center
Wed 09:10:59 PM 56.6833 -114.2500 180° South 390 449 31,000  Level Edmonton Center
Wed 09:11:59 PM 56.5833 -114.2500 180° South 400 460 31,000  Level Edmonton Center
Wed 09:12:59 PM 56.4667 -114.2167 171° South 390 449 31,000  Level Edmonton Center
Wed 09:13:59 PM 56.3500 -114.2167 180° South 390 449 31,000  Level Edmonton Center
Wed 09:14:59 PM 56.2500 -114.2333 185° South 400 460 31,000  Level Edmonton Center
Wed 09:15:59 PM 56.1500 -114.2333 180° South 400 460 31,000  Level Edmonton Center
Wed 09:16:59 PM 56.0333 -114.2333 180° South 400 460 31,000  Level Edmonton Center
Wed 09:17:59 PM 55.9333 -114.2167 175° South 400 460 31,000  Level Edmonton Center
Wed 09:18:59 PM 55.8000 -114.2167 180° South 400 460 31,000  Level Edmonton Center
Wed 09:19:59 PM 55.6833 -114.2167 180° South 400 460 31,000  Level Edmonton Center
Wed 09:20:59 PM 55.5667 -114.2167 180° South 400 460 31,000  Level Edmonton Center
Wed 09:21:59 PM 55.4667 -114.2167 180° South 400 460 31,000  Level Edmonton Center
Wed 09:22:59 PM 55.3500 -114.1833 171° South 390 449 31,000  Level Edmonton Center
Wed 09:23:59 PM 55.2500 -114.2000 185° South 380 437 31,000  Level Edmonton Center
Wed 09:24:59 PM 55.1333 -114.2000 180° South 380 437 31,000  Level Edmonton Center
Wed 09:25:59 PM 55.0333 -114.2000 180° South 370 426 31,000  Level Edmonton Center
Wed 09:26:59 PM 54.9333 -114.1833 175° South 370 426 31,000  Level Edmonton Center
Wed 09:27:59 PM 54.8333 -114.1833 180° South 360 414 31,000  Level Edmonton Center
Wed 09:28:59 PM 54.7333 -114.2000 185° South 360 414 31,000  Level Edmonton Center
Wed 09:29:59 PM 54.6333 -114.1667 169° South 360 414 31,000  Level Edmonton Center
Wed 09:30:59 PM 54.5333 -114.1833 186° South 360 414 31,000  Level Edmonton Center
Wed 09:31:59 PM 54.4333 -114.1833 180° South 360 414 31,000 -1,150 Level Edmonton Center
Wed 09:32:59 PM 54.3333 -114.1500 169° South 360 414 28,700 -2,800 Descending Edmonton Center
Wed 09:33:59 PM 54.2167 -114.1667 185° South 380 437 25,400 -2,850 Descending Edmonton Center
Wed 09:34:59 PM 54.1167 -114.1333 169° South 380 437 23,000 -2,900 Descending Edmonton Center
Wed 09:35:59 PM 54.0333 -114.0333 145° Southeast 390 449 19,600 -3,350 Descending Edmonton Center
Wed 09:36:59 PM 53.9333 -113.9500 154° Southeast 400 460 16,300 -2,750 Descending Edmonton Center
Wed 09:37:59 PM 53.8333 -113.8500 149° Southeast 370 426 14,100 -2,550 Descending Edmonton Center
Wed 09:38:59 PM 53.7500 -113.7667 149° Southeast 360 414 11,200 -2,050 Descending Edmonton Center
Wed 09:39:59 PM 53.6667 -113.6667 145° Southeast 330 380 10,000 -1,450 Descending Edmonton Center
Wed 09:40:59 PM 53.6000 -113.5833 143° Southeast 290 334 8,300 -1,550 Descending Edmonton Center
Wed 09:41:59 PM 53.5167 -113.5500 167° South 280 322 6,900 -1,350 Descending Edmonton Center
Wed 09:42:59 PM 53.4500 -113.4667 143° Southeast 260 299 5,600 -750 Descending Edmonton Center
Wed 09:43:59 PM 53.4000 -113.4667 180° South 200 230 5,400 -700 Descending Edmonton Center
Wed 09:44:59 PM 53.3667 -113.5167 222° Southwest 170 196 4,200 -1,200 Descending Edmonton Center
Wed 09:45:59 PM 53.3333 -113.5667 222° Southwest 140 161 3,000 -950 Descending Edmonton Center
Wed 09:46:59 PM 53.3000 -113.6167 222° Southwest 140 161 2,300 -700 Descending Edmonton Center

Login

Don't have an account? Register now (free) for customized features, flight alerts, and more!